Terminal Aerodrome Forecast
Issued by NWS Wilmington, OH

Current Version | Previous Version | Text Only | Print | Product List | Glossary On
Versions: 1 2 3 4 5 6 7 8 9 10 11 12 13 14 15 16
627 FTUS41 KILN 262320 TAFDAY TAF KDAY 262320Z 2700/2724 19012KT P6SM SCT035 BKN200 FM270200 18006KT P6SM SCT040 BKN250 FM271600 19012KT P6SM BKN040=

USA.gov is the U.S. government's official web portal to all federal, state and local government web resources and services.